createdAt,value
2023-04-17T00:00:27.017Z,95294.00
2023-04-17T00:01:27.092Z,95296.00
2023-04-17T00:02:27.287Z,95294.00
2023-04-17T00:03:27.380Z,95292.00
2023-04-17T00:04:27.320Z,95294.00
2023-04-17T00:05:27.371Z,95290.00
2023-04-17T00:06:27.536Z,95290.00
2023-04-17T00:07:27.491Z,95292.00
2023-04-17T00:08:27.579Z,95292.00
2023-04-17T00:09:27.633Z,95290.00
2023-04-17T00:10:27.694Z,95290.00
2023-04-17T00:11:27.750Z,95292.00
2023-04-17T00:12:27.803Z,95292.00
2023-04-17T00:13:27.901Z,95292.00
2023-04-17T00:14:27.959Z,95290.00
2023-04-17T00:15:28.033Z,95290.00
2023-04-17T00:16:28.141Z,95292.00
2023-04-17T00:17:28.184Z,95290.00
2023-04-17T00:18:28.220Z,95290.00
2023-04-17T00:19:28.306Z,95292.00
2023-04-17T00:20:28.385Z,95292.00
2023-04-17T00:21:28.426Z,95290.00
2023-04-17T00:22:28.475Z,95290.00
2023-04-17T00:23:28.531Z,95290.00
2023-04-17T00:24:28.598Z,95290.00
2023-04-17T00:25:28.688Z,95290.00
2023-04-17T00:26:28.738Z,95290.00
2023-04-17T00:27:28.824Z,95290.00
2023-04-17T00:28:28.870Z,95290.00
2023-04-17T00:29:28.954Z,95292.00
2023-04-17T00:30:29.070Z,95288.00
2023-04-17T00:31:29.172Z,95292.00
2023-04-17T00:32:29.201Z,95292.00
2023-04-17T00:33:29.253Z,95292.00
2023-04-17T00:34:29.338Z,95292.00
2023-04-17T00:35:29.396Z,95288.00
2023-04-17T00:36:29.463Z,95288.00
2023-04-17T00:37:29.549Z,95288.00
2023-04-17T00:38:29.584Z,95290.00
2023-04-17T00:39:29.726Z,95288.00
2023-04-17T00:40:29.757Z,95286.00
2023-04-17T00:41:31.577Z,95284.00
2023-04-17T00:42:29.864Z,95284.00
2023-04-17T00:43:29.965Z,95284.00
2023-04-17T00:44:30.001Z,95284.00
2023-04-17T00:45:30.116Z,95282.00
2023-04-17T00:46:30.149Z,95286.00
2023-04-17T00:47:30.230Z,95284.00
2023-04-17T00:48:30.247Z,95284.00
2023-04-17T00:49:30.356Z,95284.00
2023-04-17T00:50:30.445Z,95284.00
2023-04-17T00:51:30.477Z,95284.00
2023-04-17T00:52:30.538Z,95284.00
2023-04-17T00:53:30.597Z,95284.00
2023-04-17T00:54:30.750Z,95284.00
2023-04-17T00:55:30.724Z,95280.00
2023-04-17T00:56:30.808Z,95280.00
2023-04-17T00:57:30.855Z,95278.00
2023-04-17T00:58:30.958Z,95282.00
2023-04-17T00:59:31.026Z,95282.00
2023-04-17T01:00:31.059Z,95282.00
2023-04-17T01:01:31.176Z,95278.00
2023-04-17T01:02:31.365Z,95278.00
2023-04-17T01:03:31.493Z,95284.00
2023-04-17T01:04:31.363Z,95280.00
2023-04-17T01:05:31.432Z,95280.00
2023-04-17T01:06:31.448Z,95282.00
2023-04-17T01:07:31.550Z,95282.00
2023-04-17T01:08:31.567Z,95282.00
2023-04-17T01:09:31.646Z,95282.00
2023-04-17T01:10:31.727Z,95282.00
2023-04-17T01:11:31.790Z,95284.00
2023-04-17T01:12:31.835Z,95282.00
2023-04-17T01:13:31.903Z,95282.00
2023-04-17T01:14:32.008Z,95282.00
2023-04-17T01:15:32.025Z,95284.00
2023-04-17T01:16:32.112Z,95284.00
2023-04-17T01:17:32.294Z,95286.00
2023-04-17T01:18:32.245Z,95284.00
2023-04-17T01:19:32.296Z,95286.00
2023-04-17T01:20:32.370Z,95284.00
2023-04-17T01:21:32.432Z,95286.00
2023-04-17T01:22:32.519Z,95284.00
2023-04-17T01:23:32.564Z,95282.00
2023-04-17T01:24:32.649Z,95286.00
2023-04-17T01:25:32.721Z,95286.00
2023-04-17T01:26:32.764Z,95286.00
2023-04-17T01:27:32.832Z,95282.00
2023-04-17T01:28:32.894Z,95286.00
2023-04-17T01:29:32.985Z,95284.00
2023-04-17T01:30:33.104Z,95280.00
2023-04-17T01:31:33.101Z,95280.00
2023-04-17T01:32:33.194Z,95280.00
2023-04-17T01:33:33.243Z,95278.00
2023-04-17T01:34:34.251Z,95278.00
2023-04-17T01:35:33.388Z,95278.00
2023-04-17T01:36:33.452Z,95276.00
2023-04-17T01:37:33.557Z,95276.00
2023-04-17T01:38:33.574Z,95276.00
2023-04-17T01:39:33.693Z,95276.00
2023-04-17T01:40:33.802Z,95276.00
2023-04-17T01:41:33.823Z,95278.00
2023-04-17T01:42:33.891Z,95276.00
2023-04-17T01:43:33.994Z,95276.00
2023-04-17T01:44:34.072Z,95276.00
2023-04-17T01:45:34.167Z,95276.00
2023-04-17T01:46:34.257Z,95276.00
2023-04-17T01:47:34.318Z,95278.00
2023-04-17T01:48:34.364Z,95274.00
2023-04-17T01:49:34.410Z,95278.00
2023-04-17T01:50:34.492Z,95280.00
2023-04-17T01:51:34.585Z,95280.00
2023-04-17T01:52:34.636Z,95276.00
2023-04-17T01:53:34.716Z,95276.00
2023-04-17T01:54:34.803Z,95276.00
2023-04-17T01:55:34.858Z,95280.00
2023-04-17T01:56:34.910Z,95278.00
2023-04-17T01:57:35.012Z,95278.00
2023-04-17T01:58:35.054Z,95280.00
2023-04-17T01:59:35.146Z,95278.00
2023-04-17T02:00:35.251Z,95282.00
2023-04-17T02:01:35.353Z,95278.00
2023-04-17T02:02:35.495Z,95280.00
2023-04-17T02:03:35.588Z,95278.00
2023-04-17T02:04:35.627Z,95280.00
2023-04-17T02:05:35.645Z,95280.00
2023-04-17T02:06:35.693Z,95278.00
2023-04-17T02:07:35.756Z,95280.00
2023-04-17T02:08:35.837Z,95278.00
2023-04-17T02:09:35.916Z,95280.00
2023-04-17T02:10:35.987Z,95280.00
2023-04-17T02:11:36.061Z,95280.00
2023-04-17T02:12:36.126Z,95280.00
2023-04-17T02:13:36.223Z,95278.00
2023-04-17T02:14:36.301Z,95280.00
2023-04-17T02:15:36.404Z,95282.00
2023-04-17T02:16:36.432Z,95280.00
2023-04-17T02:17:36.524Z,95280.00
2023-04-17T02:18:36.582Z,95282.00
2023-04-17T02:19:36.673Z,95276.00
2023-04-17T02:20:36.766Z,95278.00
2023-04-17T02:21:36.828Z,95278.00
2023-04-17T02:22:36.882Z,95280.00
2023-04-17T02:23:36.978Z,95284.00
2023-04-17T02:24:37.012Z,95284.00
2023-04-17T02:25:37.093Z,95282.00
2023-04-17T02:26:37.168Z,95282.00
2023-04-17T02:27:37.248Z,95282.00
2023-04-17T02:28:37.331Z,95282.00
2023-04-17T02:29:38.099Z,95282.00
2023-04-17T02:30:37.508Z,95284.00
2023-04-17T02:31:37.627Z,95280.00
2023-04-17T02:32:37.725Z,95280.00
2023-04-17T02:33:37.720Z,95282.00
2023-04-17T02:34:37.762Z,95280.00
2023-04-17T02:35:37.879Z,95282.00
2023-04-17T02:36:37.948Z,95280.00
2023-04-17T02:37:38.017Z,95280.00
2023-04-17T02:38:38.075Z,95282.00
2023-04-17T02:39:38.150Z,95280.00
2023-04-17T02:40:38.255Z,95278.00
2023-04-17T02:41:38.312Z,95278.00
2023-04-17T02:42:38.372Z,95278.00
2023-04-17T02:43:38.459Z,95278.00
2023-04-17T02:44:38.544Z,95278.00
2023-04-17T02:45:38.616Z,95278.00
2023-04-17T02:46:38.780Z,95278.00
2023-04-17T02:47:38.789Z,95274.00
2023-04-17T02:48:38.826Z,95276.00
2023-04-17T02:49:38.875Z,95280.00
2023-04-17T02:50:38.975Z,95278.00
2023-04-17T02:51:39.059Z,95276.00
2023-04-17T02:52:39.184Z,95278.00
2023-04-17T02:53:39.188Z,95276.00
2023-04-17T02:54:39.251Z,95280.00
2023-04-17T02:55:39.335Z,95278.00
2023-04-17T02:56:39.423Z,95280.00
2023-04-17T02:57:39.514Z,95280.00
2023-04-17T02:58:39.585Z,95278.00
2023-04-17T02:59:39.616Z,95278.00
2023-04-17T03:00:39.777Z,95276.00
2023-04-17T03:01:39.776Z,95278.00
2023-04-17T03:02:39.986Z,95276.00
2023-04-17T03:03:40.109Z,95276.00
2023-04-17T03:04:39.997Z,95276.00
2023-04-17T03:05:40.106Z,95274.00
2023-04-17T03:06:40.160Z,95274.00
2023-04-17T03:07:40.276Z,95273.00
2023-04-17T03:08:40.320Z,95273.00
2023-04-17T03:09:40.349Z,95274.00
2023-04-17T03:10:40.456Z,95274.00
2023-04-17T03:11:40.504Z,95274.00
2023-04-17T03:12:40.577Z,95276.00
2023-04-17T03:13:40.679Z,95276.00
2023-04-17T03:14:40.734Z,95276.00
2023-04-17T03:15:40.813Z,95278.00
2023-04-17T03:16:40.936Z,95278.00
2023-04-17T03:17:40.996Z,95280.00
2023-04-17T03:18:41.046Z,95280.00
2023-04-17T03:19:41.135Z,95276.00
2023-04-17T03:20:41.216Z,95278.00
2023-04-17T03:21:41.292Z,95274.00
2023-04-17T03:22:41.379Z,95276.00
2023-04-17T03:23:41.425Z,95276.00
2023-04-17T03:24:41.498Z,95278.00
2023-04-17T03:25:41.635Z,95280.00
2023-04-17T03:26:41.666Z,95276.00
2023-04-17T03:27:41.742Z,95282.00
2023-04-17T03:28:41.813Z,95280.00
2023-04-17T03:29:41.860Z,95280.00
2023-04-17T03:30:41.978Z,95280.00
2023-04-17T03:31:42.055Z,95282.00
2023-04-17T03:32:42.135Z,95282.00
2023-04-17T03:33:42.183Z,95286.00
2023-04-17T03:34:42.255Z,95286.00
2023-04-17T03:35:42.301Z,95286.00
2023-04-17T03:36:42.384Z,95286.00
2023-04-17T03:37:42.488Z,95290.00
2023-04-17T03:38:42.523Z,95290.00
2023-04-17T03:39:42.607Z,95290.00
2023-04-17T03:40:42.697Z,95288.00
2023-04-17T03:41:42.772Z,95292.00
2023-04-17T03:42:42.836Z,95292.00
2023-04-17T03:43:42.908Z,95294.00
2023-04-17T03:44:42.981Z,95294.00
2023-04-17T03:45:43.161Z,95296.00
2023-04-17T03:46:43.169Z,95296.00
2023-04-17T03:47:43.347Z,95296.00
2023-04-17T03:48:43.316Z,95294.00
2023-04-17T03:49:43.396Z,95298.00
2023-04-17T03:50:43.457Z,95300.00
2023-04-17T03:51:43.550Z,95298.00
2023-04-17T03:52:43.581Z,95298.00
2023-04-17T03:53:43.654Z,95300.00
2023-04-17T03:54:43.753Z,95300.00
2023-04-17T03:55:43.850Z,95304.00
2023-04-17T03:56:43.928Z,95302.00
2023-04-17T03:57:43.979Z,95304.00
2023-04-17T03:58:44.066Z,95302.00
2023-04-17T03:59:44.215Z,95306.00
2023-04-17T04:00:44.236Z,95306.00
2023-04-17T04:01:46.506Z,95306.00
2023-04-17T04:02:44.496Z,95306.00
2023-04-17T04:03:44.690Z,95306.00
2023-04-17T04:04:44.634Z,95308.00
2023-04-17T04:05:44.616Z,95308.00
2023-04-17T04:06:44.706Z,95306.00
2023-04-17T04:07:44.754Z,95308.00
2023-04-17T04:08:44.840Z,95306.00
2023-04-17T04:09:44.938Z,95306.00
2023-04-17T04:10:45.038Z,95308.00
2023-04-17T04:11:45.101Z,95306.00
2023-04-17T04:12:45.189Z,95306.00
2023-04-17T04:13:45.252Z,95306.00
2023-04-17T04:14:45.294Z,95304.00
2023-04-17T04:15:45.415Z,95306.00
2023-04-17T04:16:45.482Z,95306.00
2023-04-17T04:17:45.641Z,95306.00
2023-04-17T04:18:45.672Z,95306.00
2023-04-17T04:19:45.700Z,95302.00
2023-04-17T04:20:45.794Z,95304.00
2023-04-17T04:21:45.893Z,95300.00
2023-04-17T04:22:45.956Z,95300.00
2023-04-17T04:23:46.044Z,95302.00
2023-04-17T04:24:46.095Z,95298.00
2023-04-17T04:25:46.237Z,95300.00
2023-04-17T04:26:46.262Z,95300.00
2023-04-17T04:27:46.357Z,95300.00
2023-04-17T04:28:46.438Z,95300.00
2023-04-17T04:29:46.493Z,95302.00
2023-04-17T04:30:46.590Z,95302.00
2023-04-17T04:31:46.796Z,95302.00
2023-04-17T04:32:46.764Z,95300.00
2023-04-17T04:33:46.806Z,95302.00
2023-04-17T04:34:46.906Z,95302.00
2023-04-17T04:35:46.987Z,95302.00
2023-04-17T04:36:47.037Z,95300.00
2023-04-17T04:37:47.151Z,95300.00
2023-04-17T04:38:47.218Z,95300.00
2023-04-17T04:40:44.817Z,95300.00
2023-04-17T04:41:44.755Z,95300.00
2023-04-17T04:42:44.831Z,95300.00
2023-04-17T04:43:44.764Z,95298.00
2023-04-17T04:44:44.696Z,95298.00
2023-04-17T04:45:44.746Z,95298.00
2023-04-17T04:46:44.703Z,95300.00
2023-04-17T04:47:44.718Z,95298.00
2023-04-17T04:48:44.693Z,95302.00
2023-04-17T04:49:44.666Z,95302.00
2023-04-17T04:50:44.679Z,95304.00
2023-04-17T04:51:44.690Z,95306.00
2023-04-17T04:52:44.699Z,95308.00
2023-04-17T04:53:44.696Z,95304.00
2023-04-17T04:54:44.703Z,95306.00
2023-04-17T04:55:44.667Z,95308.00
2023-04-17T04:56:44.680Z,95313.00
2023-04-17T04:57:44.690Z,95313.00
2023-04-17T04:58:44.670Z,95313.00
2023-04-17T04:59:44.655Z,95312.00
2023-04-17T05:00:44.702Z,95315.00
2023-04-17T05:01:44.922Z,95315.00
2023-04-17T05:02:44.834Z,95313.00
2023-04-17T05:03:44.773Z,95312.00
2023-04-17T05:04:44.700Z,95313.00
2023-04-17T05:05:44.630Z,95312.00
2023-04-17T05:06:44.639Z,95313.00
2023-04-17T05:07:44.624Z,95313.00
2023-04-17T05:08:44.641Z,95315.00
2023-04-17T05:09:44.615Z,95319.00
2023-04-17T05:10:44.624Z,95319.00
2023-04-17T05:11:44.645Z,95319.00
2023-04-17T05:12:44.642Z,95319.00
2023-04-17T05:13:44.667Z,95319.00
2023-04-17T05:14:44.667Z,95321.00
2023-04-17T05:15:44.656Z,95321.00
2023-04-17T05:16:44.778Z,95321.00
2023-04-17T05:17:44.730Z,95321.00
2023-04-17T05:18:44.709Z,95327.00
2023-04-17T05:19:44.765Z,95325.00
2023-04-17T05:20:44.790Z,95325.00
2023-04-17T05:21:44.878Z,95329.00
2023-04-17T05:22:44.954Z,95323.00
2023-04-17T05:23:45.034Z,95327.00
2023-04-17T05:24:45.115Z,95327.00
2023-04-17T05:25:45.146Z,95329.00
2023-04-17T05:26:45.229Z,95327.00
2023-04-17T05:27:45.269Z,95333.00
2023-04-17T05:28:45.344Z,95329.00
2023-04-17T05:29:45.407Z,95331.00
2023-04-17T05:30:45.491Z,95335.00
2023-04-17T05:31:45.585Z,95337.00
2023-04-17T05:32:45.667Z,95335.00
2023-04-17T05:33:45.684Z,95339.00
2023-04-17T05:34:45.730Z,95335.00
2023-04-17T05:35:45.828Z,95339.00
2023-04-17T05:36:45.912Z,95337.00
2023-04-17T05:37:45.960Z,95339.00
2023-04-17T05:38:46.422Z,95337.00
2023-04-17T05:39:46.086Z,95339.00
2023-04-17T05:40:46.977Z,95341.00
2023-04-17T05:41:46.510Z,95337.00
2023-04-17T05:42:46.272Z,95337.00
2023-04-17T05:43:46.358Z,95337.00
2023-04-17T05:44:46.404Z,95339.00
2023-04-17T05:45:46.484Z,95343.00
2023-04-17T05:46:46.977Z,95343.00
2023-04-17T05:47:46.677Z,95343.00
2023-04-17T05:48:46.699Z,95343.00
2023-04-17T05:49:46.753Z,95345.00
2023-04-17T05:50:46.857Z,95343.00
2023-04-17T05:51:46.976Z,95343.00
2023-04-17T05:52:47.003Z,95343.00
2023-04-17T05:53:47.087Z,95341.00
2023-04-17T05:54:47.152Z,95337.00
2023-04-17T05:55:47.204Z,95341.00
2023-04-17T05:56:47.493Z,95339.00
2023-04-17T05:57:47.355Z,95343.00
2023-04-17T05:58:47.442Z,95339.00
2023-04-17T05:59:47.498Z,95339.00
2023-04-17T06:00:47.545Z,95339.00
2023-04-17T06:01:47.658Z,95341.00
2023-04-17T06:02:47.778Z,95339.00
2023-04-17T06:03:48.026Z,95343.00
2023-04-17T06:04:48.054Z,95345.00
2023-04-17T06:05:47.856Z,95345.00
2023-04-17T06:06:47.884Z,95347.00
2023-04-17T06:07:47.932Z,95345.00
2023-04-17T06:08:47.952Z,95347.00
2023-04-17T06:09:47.968Z,95345.00
2023-04-17T06:10:48.019Z,95343.00
2023-04-17T06:11:48.036Z,95347.00
2023-04-17T06:12:48.033Z,95349.00
2023-04-17T06:13:48.073Z,95355.00
2023-04-17T06:14:48.062Z,95355.00
2023-04-17T06:15:48.105Z,95353.00
2023-04-17T06:16:48.563Z,95355.00
2023-04-17T06:17:48.201Z,95355.00
2023-04-17T06:18:48.169Z,95355.00
2023-04-17T06:19:48.155Z,95359.00
2023-04-17T06:20:48.181Z,95355.00
2023-04-17T06:21:48.242Z,95357.00
2023-04-17T06:22:48.207Z,95359.00
2023-04-17T06:23:48.284Z,95357.00
2023-04-17T06:24:48.329Z,95359.00
2023-04-17T06:25:48.291Z,95360.00
2023-04-17T06:26:48.332Z,95360.00
2023-04-17T06:27:48.308Z,95365.00
2023-04-17T06:28:48.326Z,95365.00
2023-04-17T06:29:48.345Z,95365.00
2023-04-17T06:30:48.416Z,95365.00
2023-04-17T06:31:48.366Z,95368.00
2023-04-17T06:32:48.467Z,95370.00
2023-04-17T06:33:48.414Z,95368.00
2023-04-17T06:35:48.380Z,95370.00
2023-04-17T06:36:48.366Z,95370.00
2023-04-17T06:37:48.372Z,95368.00
2023-04-17T06:38:48.369Z,95368.00
2023-04-17T06:39:48.382Z,95372.00
2023-04-17T06:40:49.177Z,95374.00
2023-04-17T06:41:48.362Z,95372.00
2023-04-17T06:42:48.333Z,95370.00
2023-04-17T06:43:48.315Z,95380.00
2023-04-17T06:44:48.319Z,95376.00
2023-04-17T06:45:48.292Z,95376.00
2023-04-17T06:46:48.583Z,95374.00
2023-04-17T06:47:48.305Z,95376.00
2023-04-17T06:48:48.271Z,95378.00
2023-04-17T06:49:48.280Z,95376.00
2023-04-17T06:50:48.259Z,95380.00
2023-04-17T06:51:48.500Z,95378.00
2023-04-17T06:52:48.238Z,95376.00
2023-04-17T06:53:48.261Z,95378.00
2023-04-17T06:54:48.238Z,95376.00
2023-04-17T06:55:48.227Z,95380.00
2023-04-17T06:56:48.227Z,95378.00
2023-04-17T06:57:48.225Z,95378.00
2023-04-17T06:58:48.215Z,95378.00
2023-04-17T06:59:48.237Z,95376.00
2023-04-17T07:00:48.327Z,95386.00
2023-04-17T07:01:48.253Z,95380.00
2023-04-17T07:02:48.266Z,95376.00
2023-04-17T07:03:48.370Z,95376.00
2023-04-17T07:04:48.247Z,95378.00
2023-04-17T07:05:48.190Z,95378.00
2023-04-17T07:06:48.176Z,95378.00
2023-04-17T07:07:48.168Z,95380.00
2023-04-17T07:08:48.135Z,95378.00
2023-04-17T07:09:48.193Z,95380.00
2023-04-17T07:10:48.183Z,95378.00
2023-04-17T07:11:48.146Z,95378.00
2023-04-17T07:12:48.106Z,95382.00
2023-04-17T07:13:48.221Z,95382.00
2023-04-17T07:14:48.132Z,95384.00
2023-04-17T07:15:48.203Z,95386.00
2023-04-17T07:16:48.248Z,95386.00
2023-04-17T07:17:48.166Z,95388.00
2023-04-17T07:18:48.086Z,95394.00
2023-04-17T07:19:48.073Z,95392.00
2023-04-17T07:20:48.126Z,95392.00
2023-04-17T07:21:48.167Z,95394.00
2023-04-17T07:22:48.185Z,95396.00
2023-04-17T07:23:48.213Z,95394.00
2023-04-17T07:24:48.268Z,95396.00
2023-04-17T07:25:48.253Z,95396.00
2023-04-17T07:26:48.318Z,95392.00
2023-04-17T07:27:48.351Z,95394.00
2023-04-17T07:28:48.390Z,95394.00
2023-04-17T07:29:48.403Z,95398.00
2023-04-17T07:30:48.466Z,95394.00
2023-04-17T07:31:48.478Z,95394.00
2023-04-17T07:32:48.506Z,95396.00
2023-04-17T07:33:48.516Z,95396.00
2023-04-17T07:34:48.576Z,95398.00
2023-04-17T07:35:48.589Z,95394.00
2023-04-17T07:36:48.667Z,95396.00
2023-04-17T07:37:48.683Z,95396.00
2023-04-17T07:38:48.732Z,95398.00
2023-04-17T07:39:48.813Z,95398.00
2023-04-17T07:40:48.856Z,95392.00
2023-04-17T07:41:49.007Z,95398.00
2023-04-17T07:42:48.940Z,95396.00
2023-04-17T07:43:49.026Z,95394.00
2023-04-17T07:44:49.050Z,95392.00
2023-04-17T07:45:49.132Z,95392.00
2023-04-17T07:46:49.543Z,95392.00
2023-04-17T07:47:49.301Z,95396.00
2023-04-17T07:48:49.291Z,95396.00
2023-04-17T07:49:49.378Z,95392.00
2023-04-17T07:50:49.386Z,95394.00
2023-04-17T07:51:49.442Z,95394.00
2023-04-17T07:52:49.462Z,95394.00
2023-04-17T07:53:49.506Z,95396.00
2023-04-17T07:54:49.519Z,95396.00
2023-04-17T07:55:49.560Z,95394.00
2023-04-17T07:56:49.627Z,95392.00
2023-04-17T07:57:49.635Z,95390.00
2023-04-17T07:58:49.682Z,95392.00
2023-04-17T07:59:49.698Z,95392.00
2023-04-17T08:00:49.761Z,95394.00
2023-04-17T08:01:49.824Z,95394.00
2023-04-17T08:02:49.982Z,95394.00
2023-04-17T08:03:49.994Z,95396.00
2023-04-17T08:04:50.064Z,95394.00
2023-04-17T08:05:49.928Z,95396.00
2023-04-17T08:06:49.945Z,95396.00
2023-04-17T08:07:50.001Z,95398.00
2023-04-17T08:08:49.960Z,95396.00
2023-04-17T08:09:50.014Z,95398.00
2023-04-17T08:10:49.999Z,95396.00
2023-04-17T08:11:57.121Z,95396.00
2023-04-17T08:12:51.571Z,95396.00
2023-04-17T08:13:50.043Z,95396.00
2023-04-17T08:14:49.998Z,95398.00
2023-04-17T08:15:49.982Z,95398.00
2023-04-17T08:16:50.019Z,95398.00
2023-04-17T08:17:50.021Z,95396.00
2023-04-17T08:18:49.963Z,95398.00
2023-04-17T08:19:49.953Z,95400.00
2023-04-17T08:20:49.974Z,95396.00
2023-04-17T08:21:49.900Z,95398.00
2023-04-17T08:22:49.903Z,95396.00
2023-04-17T08:23:49.911Z,95392.00
2023-04-17T08:24:49.885Z,95392.00
2023-04-17T08:25:49.880Z,95390.00
2023-04-17T08:26:49.866Z,95390.00
2023-04-17T08:27:49.869Z,95390.00
2023-04-17T08:28:49.810Z,95390.00
2023-04-17T08:29:49.784Z,95386.00
2023-04-17T08:30:49.853Z,95388.00
2023-04-17T08:31:53.336Z,95388.00
2023-04-17T08:32:50.786Z,95382.00
2023-04-17T08:33:51.303Z,95382.00
2023-04-17T08:34:50.773Z,95382.00
2023-04-17T08:35:49.714Z,95384.00
2023-04-17T08:36:49.681Z,95384.00
2023-04-17T08:37:50.031Z,95384.00
2023-04-17T08:38:49.693Z,95380.00
2023-04-17T08:39:49.676Z,95380.00
2023-04-17T08:40:49.687Z,95378.00
2023-04-17T08:41:49.625Z,95380.00
2023-04-17T08:42:50.056Z,95378.00
2023-04-17T08:43:49.649Z,95378.00
2023-04-17T08:44:49.600Z,95378.00
2023-04-17T08:45:49.611Z,95376.00
2023-04-17T08:46:49.586Z,95374.00
2023-04-17T08:47:49.638Z,95374.00
2023-04-17T08:48:52.073Z,95370.00
2023-04-17T08:49:49.758Z,95370.00
2023-04-17T08:50:49.846Z,95372.00
2023-04-17T08:51:49.861Z,95370.00
2023-04-17T08:52:50.045Z,95367.00
2023-04-17T08:53:49.941Z,95367.00
2023-04-17T08:54:51.533Z,95367.00
2023-04-17T08:55:50.066Z,95365.00
2023-04-17T08:56:50.094Z,95365.00
2023-04-17T08:57:50.146Z,95360.00
2023-04-17T08:58:50.162Z,95365.00
2023-04-17T08:59:50.191Z,95365.00
2023-04-17T09:00:50.188Z,95360.00
2023-04-17T09:01:50.277Z,95362.00
2023-04-17T09:02:50.284Z,95359.00
2023-04-17T09:03:50.318Z,95359.00
2023-04-17T09:04:50.297Z,95355.00
2023-04-17T09:05:50.199Z,95357.00
2023-04-17T09:06:50.220Z,95353.00
2023-04-17T09:07:51.822Z,95351.00
2023-04-17T09:08:50.220Z,95349.00
2023-04-17T09:09:50.262Z,95349.00
2023-04-17T09:10:50.240Z,95349.00
2023-04-17T09:11:50.298Z,95347.00
2023-04-17T09:12:50.346Z,95345.00
2023-04-17T09:13:50.335Z,95347.00
2023-04-17T09:14:50.301Z,95349.00
2023-04-17T09:15:50.327Z,95349.00
2023-04-17T09:16:50.343Z,95347.00
2023-04-17T09:17:50.416Z,95349.00
2023-04-17T09:18:50.431Z,95349.00
2023-04-17T09:19:50.496Z,95347.00
2023-04-17T09:20:50.557Z,95349.00
2023-04-17T09:21:50.581Z,95345.00
2023-04-17T09:22:50.655Z,95349.00
2023-04-17T09:23:50.674Z,95349.00
2023-04-17T09:24:50.702Z,95349.00
2023-04-17T09:25:50.751Z,95347.00
2023-04-17T09:26:50.753Z,95347.00
2023-04-17T09:27:50.776Z,95349.00
2023-04-17T09:28:50.791Z,95349.00
2023-04-17T09:29:50.785Z,95347.00
2023-04-17T09:30:50.804Z,95349.00
2023-04-17T09:31:50.901Z,95347.00
2023-04-17T09:32:50.873Z,95347.00
2023-04-17T09:33:50.820Z,95349.00
2023-04-17T09:34:50.857Z,95347.00
2023-04-17T09:35:51.005Z,95345.00
2023-04-17T09:36:50.861Z,95347.00
2023-04-17T09:37:50.898Z,95347.00
2023-04-17T09:38:50.851Z,95347.00
2023-04-17T09:39:50.900Z,95345.00
2023-04-17T09:40:50.876Z,95343.00
2023-04-17T09:41:50.888Z,95343.00
2023-04-17T09:42:51.054Z,95345.00
2023-04-17T09:43:50.872Z,95345.00
2023-04-17T09:44:50.899Z,95345.00
2023-04-17T09:45:50.942Z,95347.00
2023-04-17T09:46:50.956Z,95345.00
2023-04-17T09:47:51.143Z,95347.00
2023-04-17T09:48:50.927Z,95345.00
2023-04-17T09:49:50.917Z,95343.00
2023-04-17T09:50:50.956Z,95347.00
2023-04-17T09:51:50.978Z,95347.00
2023-04-17T09:52:51.000Z,95347.00
2023-04-17T09:53:51.033Z,95351.00
2023-04-17T09:54:51.068Z,95347.00
2023-04-17T09:55:51.102Z,95347.00
2023-04-17T09:56:51.113Z,95349.00
2023-04-17T09:57:51.136Z,95347.00
2023-04-17T09:58:51.168Z,95351.00
2023-04-17T09:59:51.230Z,95347.00
2023-04-17T10:00:51.288Z,95349.00
2023-04-17T10:01:51.361Z,95349.00
2023-04-17T10:02:51.576Z,95349.00
2023-04-17T10:03:51.552Z,95349.00
2023-04-17T10:04:51.354Z,95351.00
2023-04-17T10:05:51.428Z,95349.00
2023-04-17T10:06:51.460Z,95351.00
2023-04-17T10:07:51.510Z,95351.00
2023-04-17T10:08:51.576Z,95349.00
2023-04-17T10:09:51.588Z,95345.00
2023-04-17T10:10:51.624Z,95345.00
2023-04-17T10:11:51.685Z,95345.00
2023-04-17T10:12:51.722Z,95343.00
2023-04-17T10:13:51.742Z,95345.00
2023-04-17T10:14:51.796Z,95343.00
2023-04-17T10:15:51.832Z,95343.00
2023-04-17T10:16:51.906Z,95337.00
2023-04-17T10:17:51.931Z,95339.00
2023-04-17T10:18:51.982Z,95335.00
2023-04-17T10:19:52.022Z,95337.00
2023-04-17T10:20:52.096Z,95335.00
2023-04-17T10:21:52.159Z,95333.00
2023-04-17T10:22:52.189Z,95333.00
2023-04-17T10:23:52.216Z,95333.00
2023-04-17T10:24:52.289Z,95333.00
2023-04-17T10:25:52.324Z,95333.00
2023-04-17T10:26:52.360Z,95331.00
2023-04-17T10:27:52.466Z,95331.00
2023-04-17T10:28:52.502Z,95331.00
2023-04-17T10:29:52.528Z,95331.00
2023-04-17T10:30:52.586Z,95331.00
2023-04-17T10:31:52.666Z,95329.00
2023-04-17T10:32:52.756Z,95333.00
2023-04-17T10:33:52.735Z,95331.00
2023-04-17T10:34:52.757Z,95331.00
2023-04-17T10:35:52.806Z,95329.00
2023-04-17T10:36:52.851Z,95329.00
2023-04-17T10:37:53.079Z,95327.00
2023-04-17T10:38:52.812Z,95327.00
2023-04-17T10:39:52.793Z,95325.00
2023-04-17T10:40:52.754Z,95329.00
2023-04-17T10:41:52.770Z,95327.00
2023-04-17T10:42:52.767Z,95325.00
2023-04-17T10:43:52.809Z,95325.00
2023-04-17T10:44:52.822Z,95325.00
2023-04-17T10:45:52.948Z,95327.00
2023-04-17T10:46:52.939Z,95325.00
2023-04-17T10:47:52.977Z,95327.00
2023-04-17T10:48:53.191Z,95327.00
2023-04-17T10:49:53.046Z,95327.00
2023-04-17T10:50:53.031Z,95325.00
2023-04-17T10:51:53.108Z,95327.00
2023-04-17T10:52:53.133Z,95323.00
2023-04-17T10:53:53.163Z,95321.00
2023-04-17T10:54:53.195Z,95321.00
2023-04-17T10:55:53.231Z,95319.00
2023-04-17T10:56:53.225Z,95321.00
2023-04-17T10:57:53.262Z,95321.00
2023-04-17T10:58:53.251Z,95321.00
2023-04-17T10:59:53.287Z,95319.00
2023-04-17T11:00:53.380Z,95321.00
2023-04-17T11:01:53.503Z,95321.00
2023-04-17T11:02:53.439Z,95323.00
2023-04-17T11:03:53.358Z,95321.00
2023-04-17T11:04:53.472Z,95319.00
2023-04-17T11:05:53.420Z,95319.00
2023-04-17T11:06:53.410Z,95317.00
2023-04-17T11:07:53.434Z,95315.00
2023-04-17T11:08:53.794Z,95319.00
2023-04-17T11:09:53.469Z,95317.00
2023-04-17T11:10:53.484Z,95315.00
2023-04-17T11:11:53.515Z,95319.00
2023-04-17T11:12:53.519Z,95315.00
2023-04-17T11:13:53.540Z,95317.00
2023-04-17T11:14:53.538Z,95313.00
2023-04-17T11:15:53.543Z,95315.00
2023-04-17T11:16:53.657Z,95319.00
2023-04-17T11:17:53.620Z,95319.00
2023-04-17T11:18:53.598Z,95321.00
2023-04-17T11:19:53.627Z,95317.00
2023-04-17T11:20:53.661Z,95319.00
2023-04-17T11:21:53.810Z,95321.00
2023-04-17T11:22:53.699Z,95319.00
2023-04-17T11:23:53.649Z,95321.00
2023-04-17T11:24:53.697Z,95319.00
2023-04-17T11:25:53.696Z,95323.00
2023-04-17T11:26:53.696Z,95323.00
2023-04-17T11:27:53.744Z,95325.00
2023-04-17T11:28:53.723Z,95321.00
2023-04-17T11:29:53.777Z,95327.00
2023-04-17T11:30:53.763Z,95325.00
2023-04-17T11:31:53.846Z,95323.00
2023-04-17T11:32:54.165Z,95323.00
2023-04-17T11:33:53.838Z,95325.00
2023-04-17T11:34:53.867Z,95327.00
2023-04-17T11:35:53.890Z,95327.00
2023-04-17T11:36:53.949Z,95323.00
2023-04-17T11:37:54.147Z,95321.00
2023-04-17T11:38:55.392Z,95321.00
2023-04-17T11:39:53.996Z,95323.00
2023-04-17T11:40:54.019Z,95321.00
2023-04-17T11:41:54.032Z,95325.00
2023-04-17T11:42:54.140Z,95323.00
2023-04-17T11:43:54.084Z,95325.00
2023-04-17T11:44:54.181Z,95323.00
2023-04-17T11:45:54.292Z,95323.00
2023-04-17T11:46:54.227Z,95325.00